Time;durP1;ratioP1;P1;durP2;ratioP2;P2;SDS_P1;SDS_P2;PMS_P1;PMS_P2;Temp;Humidity;BMP_temperature;BMP_pressure;BME280_temperature;BME280_humidity;BME280_pressure;Samples;Min_cycle;Max_cycle;Signal;HPM_P1;HPM_P2
2024/01/03 00:01:03;;;;;;;5.25;5.13;;;;;;;;;;6135055;29;20063;-92
2024/01/03 00:04:05;;;;;;;5.13;5.00;;;;;;;;;;6140025;29;20454;-91
2024/01/03 00:07:07;;;;;;;5.18;4.97;;;;;;;;;;6141351;29;20051;-93
2024/01/03 00:10:30;;;;;;;5.63;5.43;;;;;;;;;;6140006;28;20118;-93
2024/01/03 00:13:38;;;;;;;5.30;5.10;;;;;;;;;;6132535;29;20059;-94
2024/01/03 00:16:40;;;;;;;6.00;5.80;;;;;;;;;;6134302;29;20497;-94
2024/01/03 00:19:42;;;;;;;4.93;4.82;;;;;;;;;;6135889;28;20051;-93
2024/01/03 00:22:44;;;;;;;4.88;4.78;;;;;;;;;;6143773;28;20122;-95
2024/01/03 00:25:46;;;;;;;5.15;5.05;;;;;;;;;;6131734;28;20059;-94
2024/01/03 00:28:48;;;;;;;4.90;4.78;;;;;;;;;;6135625;28;20055;-95
2024/01/03 00:31:50;;;;;;;5.78;5.35;;;;;;;;;;6135243;28;20055;-95
2024/01/03 00:34:52;;;;;;;5.70;5.40;;;;;;;;;;6134319;28;20047;-94
2024/01/03 00:37:54;;;;;;;5.38;5.18;;;;;;;;;;6138120;28;20292;-95
2024/01/03 00:40:57;;;;;;;12.50;6.20;;;;;;;;;;6130217;28;20447;-94
2024/01/03 00:43:59;;;;;;;4.45;4.35;;;;;;;;;;6134398;28;20043;-93
2024/01/03 00:47:01;;;;;;;5.72;5.53;;;;;;;;;;6122360;28;20092;-94
2024/01/03 00:50:03;;;;;;;5.57;5.38;;;;;;;;;;6115903;29;20082;-94
2024/01/03 00:53:05;;;;;;;5.82;5.63;;;;;;;;;;6119942;28;20146;-93
2024/01/03 00:56:07;;;;;;;5.18;5.07;;;;;;;;;;6139124;29;20052;-93
2024/01/03 00:59:09;;;;;;;5.75;5.55;;;;;;;;;;6140870;28;20047;-93
2024/01/03 01:02:11;;;;;;;6.35;5.97;;;;;;;;;;6138379;29;20038;-94
2024/01/03 01:05:14;;;;;;;4.93;4.72;;;;;;;;;;6130935;28;20059;-93
2024/01/03 01:08:15;;;;;;;5.78;5.47;;;;;;;;;;6128328;29;20050;-93
2024/01/03 01:11:21;;;;;;;5.68;5.47;;;;;;;;;;6135101;28;20043;-93
2024/01/03 01:14:23;;;;;;;5.65;5.45;;;;;;;;;;6142497;28;20043;-94
2024/01/03 01:17:25;;;;;;;5.43;5.22;;;;;;;;;;6131735;29;20505;-93
2024/01/03 01:20:27;;;;;;;4.63;4.53;;;;;;;;;;6131975;28;20572;-94
2024/01/03 01:23:30;;;;;;;5.18;5.05;;;;;;;;;;6141638;28;20038;-93
2024/01/03 01:26:32;;;;;;;5.68;5.47;;;;;;;;;;6122028;29;20055;-94
2024/01/03 01:29:33;;;;;;;5.72;5.43;;;;;;;;;;6137243;28;20048;-94
2024/01/03 01:32:35;;;;;;;5.53;5.32;;;;;;;;;;6131333;29;20436;-94
2024/01/03 01:35:37;;;;;;;5.20;4.95;;;;;;;;;;6140152;28;20433;-94
2024/01/03 01:38:40;;;;;;;5.15;4.97;;;;;;;;;;6136661;29;20082;-93
2024/01/03 01:41:42;;;;;;;5.03;4.82;;;;;;;;;;6131610;28;20481;-94
2024/01/03 01:44:44;;;;;;;4.90;4.80;;;;;;;;;;6106855;29;20410;-95
2024/01/03 01:47:46;;;;;;;5.65;5.45;;;;;;;;;;6127536;29;20055;-93
2024/01/03 01:50:48;;;;;;;5.45;5.25;;;;;;;;;;6138125;28;20055;-94
2024/01/03 01:53:51;;;;;;;5.50;5.07;;;;;;;;;;6139629;28;20093;-94
2024/01/03 01:56:53;;;;;;;5.60;5.40;;;;;;;;;;6134504;28;20497;-94
2024/01/03 01:59:56;;;;;;;5.70;5.50;;;;;;;;;;6122806;29;20158;-95
2024/01/03 02:02:58;;;;;;;5.80;5.40;;;;;;;;;;6140945;28;20411;-94
2024/01/03 02:06:00;;;;;;;5.53;5.32;;;;;;;;;;6136338;29;20043;-94
2024/01/03 02:09:02;;;;;;;6.18;5.93;;;;;;;;;;6138363;28;20441;-94
2024/01/03 02:12:05;;;;;;;7.07;5.65;;;;;;;;;;6134352;28;20163;-95
2024/01/03 02:15:06;;;;;;;5.07;4.88;;;;;;;;;;6138593;29;20062;-94
2024/01/03 02:18:09;;;;;;;5.18;5.07;;;;;;;;;;6124837;29;20410;-95
2024/01/03 02:21:15;;;;;;;5.35;5.15;;;;;;;;;;6139144;29;20098;-95
2024/01/03 02:24:18;;;;;;;5.30;5.10;;;;;;;;;;6136255;28;20680;-95
2024/01/03 02:27:19;;;;;;;6.10;5.80;;;;;;;;;;6123206;29;20043;-94
2024/01/03 02:30:21;;;;;;;5.20;5.00;;;;;;;;;;6137479;28;20047;-95
2024/01/03 02:33:23;;;;;;;5.18;4.97;;;;;;;;;;6139897;28;20054;-95
2024/01/03 02:36:29;;;;;;;4.90;4.80;;;;;;;;;;6138553;28;20058;-93
2024/01/03 02:39:31;;;;;;;5.30;5.10;;;;;;;;;;6139309;28;20047;-95
2024/01/03 02:42:36;;;;;;;4.95;4.85;;;;;;;;;;6139950;28;20074;-95
2024/01/03 02:45:38;;;;;;;4.78;4.68;;;;;;;;;;6139071;29;20055;-94
2024/01/03 02:48:40;;;;;;;4.75;4.65;;;;;;;;;;6139902;28;20043;-94
2024/01/03 02:51:43;;;;;;;4.60;4.50;;;;;;;;;;6140349;28;20040;-95
2024/01/03 02:54:45;;;;;;;4.72;4.63;;;;;;;;;;6133642;28;20036;-95
2024/01/03 02:57:47;;;;;;;5.30;5.10;;;;;;;;;;6154780;28;20055;-96
2024/01/03 03:00:49;;;;;;;5.10;5.00;;;;;;;;;;6153338;29;20051;-96
2024/01/03 03:03:51;;;;;;;14.48;13.80;;;;;;;;;;6140843;28;20040;-96
2024/01/03 03:06:53;;;;;;;4.40;4.30;;;;;;;;;;6149384;29;20156;-95
2024/01/03 03:09:55;;;;;;;5.28;5.00;;;;;;;;;;6148800;28;20035;-96
2024/01/03 03:12:57;;;;;;;5.57;5.38;;;;;;;;;;6148263;28;20568;-96
2024/01/03 03:15:59;;;;;;;5.10;4.90;;;;;;;;;;6126800;29;20501;-95
2024/01/03 03:19:03;;;;;;;5.50;5.30;;;;;;;;;;6132602;29;20117;-95
2024/01/03 03:22:09;;;;;;;5.60;5.30;;;;;;;;;;6139815;28;20043;-95
2024/01/03 03:25:10;;;;;;;5.97;5.75;;;;;;;;;;6138859;29;20050;-96
2024/01/03 03:28:12;;;;;;;5.70;5.50;;;;;;;;;;6146467;28;20058;-95
2024/01/03 03:31:14;;;;;;;4.93;4.82;;;;;;;;;;6146340;28;20043;-95
2024/01/03 03:34:17;;;;;;;6.00;5.75;;;;;;;;;;6142328;28;20039;-95
2024/01/03 03:37:19;;;;;;;5.30;5.10;;;;;;;;;;6137063;28;20437;-94
2024/01/03 03:40:23;;;;;;;4.97;4.78;;;;;;;;;;6128907;28;20557;-94
2024/01/03 03:43:25;;;;;;;4.70;4.60;;;;;;;;;;6140460;29;20042;-94
2024/01/03 03:46:27;;;;;;;7.45;6.93;;;;;;;;;;6131359;28;20069;-93
2024/01/03 03:49:30;;;;;;;4.88;4.78;;;;;;;;;;6139711;28;20058;-94
2024/01/03 03:52:31;;;;;;;5.13;5.03;;;;;;;;;;6140952;28;20109;-94
2024/01/03 03:55:33;;;;;;;5.07;4.93;;;;;;;;;;6140821;28;20493;-94
2024/01/03 03:58:35;;;;;;;5.65;5.35;;;;;;;;;;6137840;29;20039;-94
2024/01/03 04:01:37;;;;;;;8.82;5.45;;;;;;;;;;6135693;28;20254;-96
2024/01/03 04:04:39;;;;;;;5.25;5.05;;;;;;;;;;6139561;29;20044;-95
2024/01/03 04:07:41;;;;;;;5.63;5.32;;;;;;;;;;6132706;28;20454;-95
2024/01/03 04:10:43;;;;;;;4.85;4.75;;;;;;;;;;6142382;28;20055;-94
2024/01/03 04:13:45;;;;;;;5.95;5.63;;;;;;;;;;6138111;29;20043;-96
2024/01/03 04:16:47;;;;;;;5.85;5.25;;;;;;;;;;6132307;28;20130;-96
2024/01/03 04:19:49;;;;;;;5.28;5.07;;;;;;;;;;6143355;28;20047;-96
2024/01/03 04:22:51;;;;;;;5.07;4.88;;;;;;;;;;6137469;29;20122;-95
2024/01/03 04:25:53;;;;;;;4.28;4.18;;;;;;;;;;6144478;28;20047;-96
2024/01/03 04:28:55;;;;;;;5.43;5.22;;;;;;;;;;6136832;29;20043;-96
2024/01/03 04:31:58;;;;;;;5.35;5.15;;;;;;;;;;6147778;28;20043;-96
2024/01/03 04:35:00;;;;;;;5.00;4.82;;;;;;;;;;6137661;29;20043;-96
2024/01/03 04:38:03;;;;;;;5.97;5.68;;;;;;;;;;6145141;28;20409;-96
2024/01/03 04:41:04;;;;;;;5.18;4.97;;;;;;;;;;6145047;28;20558;-94
2024/01/03 04:44:06;;;;;;;5.78;5.57;;;;;;;;;;6137429;28;20043;-91
2024/01/03 04:47:08;;;;;;;5.28;5.10;;;;;;;;;;6134306;28;20058;-96
2024/01/03 04:50:25;;;;;;;6.60;6.40;;;;;;;;;;6259361;23;20051;31
2024/01/03 04:53:27;;;;;;;6.22;5.93;;;;;;;;;;6111288;29;20463;-96
2024/01/03 04:56:30;;;;;;;7.95;6.75;;;;;;;;;;6082616;29;20063;-94
2024/01/03 04:59:32;;;;;;;5.35;5.15;;;;;;;;;;6084306;29;20045;-94
2024/01/03 05:02:35;;;;;;;5.40;5.20;;;;;;;;;;6066052;29;20045;-96
2024/01/03 05:05:38;;;;;;;6.10;5.90;;;;;;;;;;6087587;29;20492;-96
2024/01/03 05:08:42;;;;;;;6.05;5.85;;;;;;;;;;6064772;29;20131;-96
2024/01/03 05:11:45;;;;;;;4.95;4.85;;;;;;;;;;6073846;29;20415;-96
2024/01/03 05:14:49;;;;;;;5.55;5.35;;;;;;;;;;6075607;29;20053;-95
2024/01/03 05:17:52;;;;;;;15.88;7.03;;;;;;;;;;6070414;29;20048;-96
2024/01/03 05:20:55;;;;;;;18.13;6.93;;;;;;;;;;6080464;29;20721;-96
2024/01/03 05:23:57;;;;;;;7.32;7.03;;;;;;;;;;6064176;29;20069;-95
2024/01/03 05:27:00;;;;;;;6.22;6.03;;;;;;;;;;6071652;29;20550;-95
2024/01/03 05:30:02;;;;;;;6.40;6.20;;;;;;;;;;6071629;29;20076;-96
2024/01/03 05:33:05;;;;;;;6.82;6.63;;;;;;;;;;6071195;29;20076;-94
2024/01/03 05:36:07;;;;;;;6.65;6.45;;;;;;;;;;6067946;29;20079;-94
2024/01/03 05:39:12;;;;;;;5.80;5.60;;;;;;;;;;6071010;29;20092;-92
2024/01/03 05:42:14;;;;;;;6.70;6.28;;;;;;;;;;6061225;29;20174;-93
2024/01/03 05:45:16;;;;;;;7.18;6.90;;;;;;;;;;6068960;29;20041;-93
2024/01/03 05:48:18;;;;;;;6.03;5.72;;;;;;;;;;6066170;29;20060;-92
2024/01/03 05:51:21;;;;;;;6.38;6.18;;;;;;;;;;6072057;29;20116;-92
2024/01/03 05:54:23;;;;;;;7.38;7.10;;;;;;;;;;6079336;29;20399;-93
2024/01/03 05:57:25;;;;;;;6.97;6.78;;;;;;;;;;6064809;29;20044;-91
2024/01/03 06:00:27;;;;;;;6.68;6.47;;;;;;;;;;6065323;29;20075;-91
2024/01/03 06:03:29;;;;;;;7.15;6.85;;;;;;;;;;6072780;29;20048;-92
2024/01/03 06:06:31;;;;;;;6.20;6.00;;;;;;;;;;6063589;29;20525;-92
2024/01/03 06:09:32;;;;;;;7.65;7.30;;;;;;;;;;6072600;29;20040;-92
2024/01/03 06:12:35;;;;;;;7.05;6.85;;;;;;;;;;6069915;29;20056;-93
2024/01/03 06:15:37;;;;;;;6.45;6.15;;;;;;;;;;6073017;29;20131;-93
2024/01/03 06:18:40;;;;;;;5.40;5.30;;;;;;;;;;6072548;29;20048;-94
2024/01/03 06:21:42;;;;;;;8.32;7.15;;;;;;;;;;6072525;29;20532;-95
2024/01/03 06:24:44;;;;;;;7.05;6.75;;;;;;;;;;6068054;29;20551;-96
2024/01/03 06:27:46;;;;;;;7.30;6.97;;;;;;;;;;6068455;29;20092;-94
2024/01/03 06:30:49;;;;;;;6.57;6.38;;;;;;;;;;6075463;29;20049;-94
2024/01/03 06:33:51;;;;;;;6.53;6.22;;;;;;;;;;6083462;29;20048;-94
2024/01/03 06:36:54;;;;;;;6.38;6.18;;;;;;;;;;6076418;29;20084;-95
2024/01/03 06:39:56;;;;;;;5.90;5.70;;;;;;;;;;6076058;29;20546;-96
2024/01/03 06:42:57;;;;;;;7.95;7.45;;;;;;;;;;6068467;29;20053;-93
2024/01/03 06:45:59;;;;;;;6.35;5.95;;;;;;;;;;6090212;29;20048;-93
2024/01/03 06:49:01;;;;;;;6.95;6.45;;;;;;;;;;6073556;29;20080;-93
2024/01/03 06:52:04;;;;;;;6.20;6.00;;;;;;;;;;6076008;29;20474;-94
2024/01/03 06:55:06;;;;;;;6.57;6.28;;;;;;;;;;6070453;29;20041;-93
2024/01/03 06:58:08;;;;;;;6.70;6.28;;;;;;;;;;6086119;29;20168;-95
2024/01/03 07:01:11;;;;;;;8.20;7.60;;;;;;;;;;6090708;29;20100;-95
2024/01/03 07:04:13;;;;;;;7.05;6.85;;;;;;;;;;6074721;29;20048;-94
2024/01/03 07:07:17;;;;;;;6.15;5.95;;;;;;;;;;6091439;29;20049;-94
2024/01/03 07:10:18;;;;;;;5.90;5.70;;;;;;;;;;6067477;29;20102;-96
2024/01/03 07:13:20;;;;;;;6.40;6.20;;;;;;;;;;6075570;29;20044;-96
2024/01/03 07:16:22;;;;;;;5.50;5.30;;;;;;;;;;6067371;29;20040;-96
2024/01/03 07:19:24;;;;;;;5.80;5.60;;;;;;;;;;6074751;29;20403;-96
2024/01/03 07:22:26;;;;;;;5.25;5.15;;;;;;;;;;6092192;29;20056;-96
2024/01/03 07:25:28;;;;;;;6.35;6.10;;;;;;;;;;6086295;29;20048;-96
2024/01/03 07:28:32;;;;;;;6.15;5.95;;;;;;;;;;6089500;29;20611;-96
2024/01/03 07:31:37;;;;;;;5.38;5.28;;;;;;;;;;6083037;29;20053;-96
2024/01/03 07:34:42;;;;;;;5.88;5.65;;;;;;;;;;6073792;29;20041;-96
2024/01/03 07:37:44;;;;;;;6.35;6.15;;;;;;;;;;6082052;29;20045;-96
2024/01/03 07:40:48;;;;;;;13.18;4.95;;;;;;;;;;6086457;29;20088;-96
2024/01/03 07:43:53;;;;;;;5.10;5.00;;;;;;;;;;6089232;29;20043;-96
2024/01/03 07:46:56;;;;;;;4.68;4.57;;;;;;;;;;6092935;29;20093;-96
2024/01/03 08:01:03;;;;;;;5.60;5.40;;;;;;;;;;6266042;23;20050;-96
2024/01/03 08:14:44;;;;;;;5.75;5.55;;;;;;;;;;7369030;23;20046;-96
2024/01/03 08:47:15;;;;;;;4.57;4.47;;;;;;;;;;7303851;23;20046;-96
2024/01/03 08:54:03;;;;;;;6.22;6.05;;;;;;;;;;7342949;23;20027;-96
2024/01/03 09:00:53;;;;;;;15.48;5.68;;;;;;;;;;7598909;23;20959;-96
2024/01/03 09:07:59;;;;;;;4.00;3.90;;;;;;;;;;6859924;23;20059;-96
2024/01/03 09:11:23;;;;;;;4.57;4.47;;;;;;;;;;6181721;28;20040;-96
2024/01/03 09:14:31;;;;;;;5.10;4.80;;;;;;;;;;6193962;28;20492;-96
2024/01/03 09:17:42;;;;;;;4.43;4.22;;;;;;;;;;6187952;28;20054;-96
2024/01/03 09:20:51;;;;;;;5.10;4.90;;;;;;;;;;6156830;28;20046;-96
2024/01/03 09:23:54;;;;;;;4.18;4.07;;;;;;;;;;6156971;28;20093;-95
2024/01/03 09:26:57;;;;;;;4.72;4.63;;;;;;;;;;6159579;28;20047;-96
2024/01/03 09:30:00;;;;;;;4.75;4.65;;;;;;;;;;6162698;28;20055;-96
2024/01/03 09:33:03;;;;;;;4.75;4.65;;;;;;;;;;6166003;28;20619;-96
2024/01/03 09:36:05;;;;;;;6.75;6.20;;;;;;;;;;6168672;28;20041;-95
2024/01/03 09:39:08;;;;;;;4.65;4.55;;;;;;;;;;6189302;28;20058;-96
2024/01/03 09:42:11;;;;;;;5.05;4.95;;;;;;;;;;6165631;28;20034;-96
2024/01/03 09:45:14;;;;;;;4.53;4.43;;;;;;;;;;6173644;28;20648;-96
2024/01/03 09:48:21;;;;;;;5.00;4.80;;;;;;;;;;6166163;28;20401;-96
2024/01/03 09:51:25;;;;;;;5.30;5.10;;;;;;;;;;6154102;28;20054;-94
2024/01/03 09:54:28;;;;;;;4.85;4.75;;;;;;;;;;6168574;28;20113;-96
2024/01/03 09:57:32;;;;;;;4.55;4.45;;;;;;;;;;6167374;28;20038;-95
2024/01/03 10:00:34;;;;;;;5.43;5.13;;;;;;;;;;6157284;28;20105;-95
2024/01/03 10:03:36;;;;;;;4.53;4.43;;;;;;;;;;6167219;28;20412;-94
2024/01/03 10:06:54;;;;;;;5.13;5.03;;;;;;;;;;6143856;28;20521;-92
2024/01/03 10:09:56;;;;;;;4.40;4.30;;;;;;;;;;6160265;28;20059;-90
2024/01/03 10:13:12;;;;;;;5.07;4.97;;;;;;;;;;6154115;28;20043;-90
2024/01/03 10:16:21;;;;;;;4.72;4.63;;;;;;;;;;6177067;28;20034;-89
2024/01/03 10:19:26;;;;;;;4.82;4.72;;;;;;;;;;6158913;28;20046;-90
2024/01/03 10:22:30;;;;;;;5.47;5.15;;;;;;;;;;6148032;28;20051;-94
2024/01/03 10:25:33;;;;;;;4.80;4.70;;;;;;;;;;6155662;28;20406;-92
2024/01/03 10:28:35;;;;;;;5.30;5.13;;;;;;;;;;6158062;28;20071;-91
2024/01/03 10:31:37;;;;;;;5.20;5.10;;;;;;;;;;6163413;28;20296;-90
2024/01/03 10:34:39;;;;;;;4.65;4.55;;;;;;;;;;6163283;28;20144;-90
2024/01/03 10:37:41;;;;;;;5.22;5.13;;;;;;;;;;6167187;28;20046;-89
2024/01/03 10:40:44;;;;;;;5.40;5.20;;;;;;;;;;6160228;28;20544;-88
2024/01/03 10:43:47;;;;;;;5.15;5.05;;;;;;;;;;6153285;28;20054;-89
2024/01/03 10:46:51;;;;;;;4.97;4.88;;;;;;;;;;6153432;28;20043;-89
2024/01/03 10:49:53;;;;;;;5.35;5.20;;;;;;;;;;6163743;28;20072;-88
2024/01/03 10:52:56;;;;;;;5.70;5.50;;;;;;;;;;6162402;28;20504;-89
2024/01/03 10:55:58;;;;;;;5.45;5.25;;;;;;;;;;6172978;28;20587;-88
2024/01/03 10:59:00;;;;;;;6.15;5.85;;;;;;;;;;6155350;28;20732;-88
2024/01/03 11:02:20;;;;;;;5.68;5.47;;;;;;;;;;6167627;28;20133;-88
2024/01/03 11:05:44;;;;;;;5.97;5.78;;;;;;;;;;6154994;28;20508;-88
2024/01/03 11:08:49;;;;;;;5.68;5.47;;;;;;;;;;6158080;28;20093;-87
2024/01/03 11:12:04;;;;;;;5.78;5.57;;;;;;;;;;6159920;28;20038;-87
2024/01/03 11:15:25;;;;;;;5.75;5.55;;;;;;;;;;6157390;28;20042;-88
2024/01/03 11:18:45;;;;;;;4.70;4.60;;;;;;;;;;6168148;28;20041;-88
2024/01/03 11:21:50;;;;;;;5.00;4.90;;;;;;;;;;6168033;28;20043;-88
2024/01/03 11:24:52;;;;;;;5.65;5.32;;;;;;;;;;6165893;28;20042;-88
2024/01/03 11:28:13;;;;;;;4.70;4.60;;;;;;;;;;6164599;28;20042;-88
2024/01/03 11:31:34;;;;;;;4.53;4.43;;;;;;;;;;6164887;28;20047;-88
2024/01/03 11:34:40;;;;;;;5.13;4.93;;;;;;;;;;6160613;28;20362;-88
2024/01/03 11:37:42;;;;;;;6.10;5.80;;;;;;;;;;6160295;28;20039;-91
2024/01/03 11:40:48;;;;;;;5.75;5.50;;;;;;;;;;6177571;28;20047;-91
2024/01/03 11:43:49;;;;;;;6.03;5.82;;;;;;;;;;6149640;28;20137;-88
2024/01/03 11:47:02;;;;;;;5.80;5.50;;;;;;;;;;6163405;28;20393;-90
2024/01/03 11:50:04;;;;;;;4.82;4.72;;;;;;;;;;6168439;28;20523;-92
2024/01/03 11:53:12;;;;;;;4.80;4.70;;;;;;;;;;6164510;28;20085;-90
2024/01/03 11:56:31;;;;;;;5.10;5.00;;;;;;;;;;6168989;28;20080;-90
2024/01/03 11:59:34;;;;;;;5.17;5.07;;;;;;;;;;6166080;28;20047;-90
2024/01/03 12:02:36;;;;;;;5.43;5.22;;;;;;;;;;6160355;28;20051;-89
2024/01/03 12:05:46;;;;;;;5.70;5.25;;;;;;;;;;6166014;28;20062;-90
2024/01/03 12:08:48;;;;;;;6.75;5.60;;;;;;;;;;6166789;28;20414;-90
2024/01/03 12:11:50;;;;;;;4.88;4.75;;;;;;;;;;6161108;28;20054;-89
2024/01/03 12:14:55;;;;;;;4.63;4.53;;;;;;;;;;6167059;28;20049;-90
2024/01/03 12:18:06;;;;;;;6.03;5.82;;;;;;;;;;6168190;28;20042;-90
2024/01/03 12:21:09;;;;;;;5.47;5.30;;;;;;;;;;6147715;28;20524;-93
2024/01/03 12:24:12;;;;;;;11.75;4.85;;;;;;;;;;6168605;28;20047;-90
2024/01/03 12:27:22;;;;;;;4.75;4.65;;;;;;;;;;6161530;28;20353;-91
2024/01/03 12:30:24;;;;;;;4.97;4.82;;;;;;;;;;6167648;28;20048;-89
2024/01/03 12:33:26;;;;;;;4.88;4.72;;;;;;;;;;6166626;28;20066;-90
2024/01/03 12:36:28;;;;;;;5.28;5.07;;;;;;;;;;6163242;28;20496;-91
2024/01/03 12:39:36;;;;;;;5.20;5.00;;;;;;;;;;6176542;28;20050;-90
2024/01/03 12:42:38;;;;;;;4.93;4.82;;;;;;;;;;6169440;28;20047;-91
2024/01/03 12:45:44;;;;;;;5.65;5.25;;;;;;;;;;6167769;28;20090;-90
2024/01/03 12:48:47;;;;;;;5.15;4.95;;;;;;;;;;6170299;28;20065;-90
2024/01/03 12:51:49;;;;;;;5.10;4.78;;;;;;;;;;6167698;28;20129;-91
2024/01/03 12:54:51;;;;;;;4.30;4.20;;;;;;;;;;6167211;28;20051;-91
2024/01/03 12:57:53;;;;;;;4.93;4.82;;;;;;;;;;6167063;28;20222;-91
2024/01/03 13:00:55;;;;;;;4.57;4.47;;;;;;;;;;6159910;28;20066;-91
2024/01/03 13:03:57;;;;;;;4.93;4.78;;;;;;;;;;6162711;28;20043;-90
2024/01/03 13:06:58;;;;;;;5.60;5.40;;;;;;;;;;6164676;28;20489;-91
2024/01/03 13:10:00;;;;;;;5.00;4.90;;;;;;;;;;6166821;28;20050;-91
2024/01/03 13:13:05;;;;;;;6.25;5.97;;;;;;;;;;6159195;28;20520;-92
2024/01/03 13:16:08;;;;;;;5.55;5.35;;;;;;;;;;6164386;28;20481;-91
2024/01/03 13:19:09;;;;;;;9.82;5.15;;;;;;;;;;6145114;28;20377;-91
2024/01/03 13:22:11;;;;;;;4.68;4.57;;;;;;;;;;6160973;28;20141;-91
2024/01/03 13:25:13;;;;;;;5.80;5.60;;;;;;;;;;6164919;28;20421;-90
2024/01/03 13:28:15;;;;;;;5.50;5.30;;;;;;;;;;6165830;28;20043;-91
2024/01/03 13:31:17;;;;;;;5.10;4.78;;;;;;;;;;6162603;28;20112;-91
2024/01/03 13:34:19;;;;;;;5.38;5.18;;;;;;;;;;6160872;28;20054;-91
2024/01/03 13:37:21;;;;;;;5.40;5.20;;;;;;;;;;6156896;28;20047;-91
2024/01/03 13:40:23;;;;;;;6.25;6.05;;;;;;;;;;6157204;28;20054;-88
2024/01/03 13:43:26;;;;;;;5.82;4.63;;;;;;;;;;6162552;28;20637;-88
2024/01/03 13:46:28;;;;;;;4.70;4.60;;;;;;;;;;6175470;28;20425;-88
2024/01/03 13:49:30;;;;;;;5.93;5.57;;;;;;;;;;6161617;28;20054;-87
2024/01/03 13:52:33;;;;;;;4.93;4.82;;;;;;;;;;6155676;28;20063;-87
2024/01/03 13:55:35;;;;;;;4.78;4.60;;;;;;;;;;6143155;28;20044;-87
2024/01/03 13:58:36;;;;;;;5.43;5.13;;;;;;;;;;6165454;28;20359;-88
2024/01/03 14:01:38;;;;;;;5.15;5.03;;;;;;;;;;6160601;28;20696;-88
2024/01/03 14:04:40;;;;;;;6.97;6.68;;;;;;;;;;6158703;28;20051;-88
2024/01/03 14:07:43;;;;;;;5.03;4.90;;;;;;;;;;6162085;28;20072;-88
2024/01/03 14:10:45;;;;;;;5.10;5.00;;;;;;;;;;6157892;28;20066;-88
2024/01/03 14:13:47;;;;;;;6.78;6.28;;;;;;;;;;6159020;28;20076;-88
2024/01/03 14:16:49;;;;;;;4.93;4.80;;;;;;;;;;6162840;28;20042;-88
2024/01/03 14:19:50;;;;;;;5.50;5.30;;;;;;;;;;6164306;28;20038;-88
2024/01/03 14:22:52;;;;;;;5.97;5.63;;;;;;;;;;6167445;28;20074;-88
2024/01/03 14:25:55;;;;;;;4.88;4.68;;;;;;;;;;6157429;28;20047;-88
2024/01/03 14:28:58;;;;;;;5.00;4.90;;;;;;;;;;6147695;28;20046;-88
2024/01/03 14:32:00;;;;;;;5.45;5.25;;;;;;;;;;6154627;28;20039;-89
2024/01/03 14:35:02;;;;;;;5.40;5.10;;;;;;;;;;6163357;28;20503;-89
2024/01/03 14:38:04;;;;;;;5.50;5.20;;;;;;;;;;6155514;28;20050;-88
2024/01/03 14:41:10;;;;;;;5.85;5.65;;;;;;;;;;6159556;28;20529;-88
2024/01/03 14:44:13;;;;;;;5.80;5.32;;;;;;;;;;6161671;28;20042;-88
2024/01/03 14:47:15;;;;;;;5.90;5.70;;;;;;;;;;6159562;28;20054;-88
2024/01/03 14:50:18;;;;;;;6.35;6.00;;;;;;;;;;6146190;28;20125;-88
2024/01/03 14:53:19;;;;;;;5.18;5.05;;;;;;;;;;6165793;28;20035;-88
2024/01/03 14:56:21;;;;;;;4.93;4.82;;;;;;;;;;6164771;28;20047;-89
2024/01/03 14:59:23;;;;;;;5.43;5.22;;;;;;;;;;6162901;28;20349;-88
2024/01/03 15:02:25;;;;;;;5.88;5.35;;;;;;;;;;6170125;28;20089;-88
2024/01/03 15:05:32;;;;;;;5.97;5.57;;;;;;;;;;6164928;28;20061;-88
2024/01/03 15:08:36;;;;;;;6.07;5.88;;;;;;;;;;6167383;28;20129;-88
2024/01/03 15:11:38;;;;;;;4.82;4.72;;;;;;;;;;6165820;28;20046;-89
2024/01/03 15:14:40;;;;;;;5.25;5.15;;;;;;;;;;6163688;28;20039;-88
2024/01/03 15:17:45;;;;;;;5.45;5.05;;;;;;;;;;6163907;28;20436;-88
2024/01/03 15:20:46;;;;;;;4.50;4.40;;;;;;;;;;6164594;28;20137;-88
2024/01/03 15:23:48;;;;;;;5.63;5.43;;;;;;;;;;6166481;28;20050;-89
2024/01/03 15:26:51;;;;;;;5.07;4.97;;;;;;;;;;6163325;28;20038;-88
2024/01/03 15:29:53;;;;;;;5.63;5.32;;;;;;;;;;6175606;28;20571;-89
2024/01/03 15:32:55;;;;;;;4.95;4.75;;;;;;;;;;6167924;28;20050;-89
2024/01/03 15:35:57;;;;;;;5.47;5.28;;;;;;;;;;6166399;28;20038;-89
2024/01/03 15:38:59;;;;;;;5.80;5.60;;;;;;;;;;6161085;28;20412;-89
2024/01/03 15:42:02;;;;;;;5.82;5.63;;;;;;;;;;6159137;28;20414;-89
2024/01/03 15:45:04;;;;;;;6.07;5.78;;;;;;;;;;6164208;28;20035;-89
2024/01/03 15:48:06;;;;;;;5.88;5.55;;;;;;;;;;6166365;28;20142;-89
2024/01/03 15:51:08;;;;;;;5.20;5.00;;;;;;;;;;6165098;28;20635;-89
2024/01/03 15:54:10;;;;;;;5.20;5.07;;;;;;;;;;6168209;28;20046;-89
2024/01/03 15:57:12;;;;;;;5.07;4.88;;;;;;;;;;6165768;28;20043;-89
2024/01/03 16:00:14;;;;;;;6.63;5.20;;;;;;;;;;6157360;28;20054;-89
2024/01/03 16:03:15;;;;;;;5.43;5.22;;;;;;;;;;6159472;28;20038;-89
2024/01/03 16:06:18;;;;;;;5.25;5.05;;;;;;;;;;6164159;28;20050;-89
2024/01/03 16:09:21;;;;;;;5.22;5.05;;;;;;;;;;6162459;28;20046;-89
2024/01/03 16:12:23;;;;;;;5.03;4.82;;;;;;;;;;6164034;28;20039;-89
2024/01/03 16:15:27;;;;;;;12.38;5.70;;;;;;;;;;6158928;28;20556;-90
2024/01/03 16:18:29;;;;;;;4.70;4.60;;;;;;;;;;6179046;28;20513;-89
2024/01/03 16:21:31;;;;;;;5.72;5.53;;;;;;;;;;6161472;28;20050;-90
2024/01/03 16:24:33;;;;;;;4.32;4.22;;;;;;;;;;6160596;28;20153;-89
2024/01/03 16:27:35;;;;;;;5.35;5.05;;;;;;;;;;6152531;28;20039;-90
2024/01/03 16:30:36;;;;;;;4.93;4.82;;;;;;;;;;6158478;28;20046;-90
2024/01/03 16:33:43;;;;;;;5.07;4.97;;;;;;;;;;6162755;28;20073;-91
2024/01/03 16:36:46;;;;;;;5.18;4.97;;;;;;;;;;6167834;28;20489;-90
2024/01/03 16:39:48;;;;;;;6.18;5.90;;;;;;;;;;6160221;28;20185;-90
2024/01/03 16:42:50;;;;;;;5.53;5.32;;;;;;;;;;6162446;28;20047;-90
2024/01/03 16:45:54;;;;;;;5.38;4.97;;;;;;;;;;6165203;28;20070;-90
2024/01/03 16:48:56;;;;;;;4.60;4.40;;;;;;;;;;6165659;28;20504;-90
2024/01/03 16:51:58;;;;;;;5.10;4.95;;;;;;;;;;6162948;28;20038;-90
2024/01/03 16:55:03;;;;;;;5.78;5.57;;;;;;;;;;6158658;28;21006;-90
2024/01/03 16:58:05;;;;;;;5.88;5.68;;;;;;;;;;6162603;28;20256;-90
2024/01/03 17:01:06;;;;;;;5.90;5.70;;;;;;;;;;6157610;28;20050;-90
2024/01/03 17:04:08;;;;;;;4.53;4.43;;;;;;;;;;6159803;28;20476;-90
2024/01/03 17:07:10;;;;;;;5.13;4.97;;;;;;;;;;6155751;28;20047;-91
2024/01/03 17:10:12;;;;;;;5.88;5.68;;;;;;;;;;6157815;28;20438;-90
2024/01/03 17:13:14;;;;;;;5.90;5.55;;;;;;;;;;6149941;28;20047;-90
2024/01/03 17:16:16;;;;;;;5.28;5.13;;;;;;;;;;6157575;28;20047;-90
2024/01/03 17:19:17;;;;;;;5.65;5.45;;;;;;;;;;6158816;28;20418;-91
2024/01/03 17:22:20;;;;;;;6.78;6.57;;;;;;;;;;6154676;28;20344;-92
2024/01/03 17:25:25;;;;;;;5.13;5.03;;;;;;;;;;6152508;28;20480;-91
2024/01/03 17:28:26;;;;;;;5.43;5.22;;;;;;;;;;6158838;28;20049;-90
2024/01/03 17:31:31;;;;;;;5.28;5.07;;;;;;;;;;6163586;28;20299;-91
2024/01/03 17:34:33;;;;;;;5.10;5.00;;;;;;;;;;6158322;28;20458;-90
2024/01/03 17:37:35;;;;;;;5.68;5.47;;;;;;;;;;6156446;28;20055;-90
2024/01/03 17:40:37;;;;;;;6.43;6.22;;;;;;;;;;6152054;28;20054;-91
2024/01/03 17:43:40;;;;;;;5.70;5.50;;;;;;;;;;6153819;28;20449;-91
2024/01/03 17:46:42;;;;;;;5.60;5.40;;;;;;;;;;6155360;28;20041;-91
2024/01/03 17:49:43;;;;;;;5.93;5.53;;;;;;;;;;6155262;28;20049;-91
2024/01/03 17:52:45;;;;;;;5.38;5.18;;;;;;;;;;6154266;28;20405;-91
2024/01/03 17:55:47;;;;;;;6.05;5.75;;;;;;;;;;6138700;28;20070;-91
2024/01/03 17:58:49;;;;;;;5.13;4.97;;;;;;;;;;6159101;28;20047;-91
2024/01/03 18:01:51;;;;;;;5.32;5.13;;;;;;;;;;6153989;28;20197;-92
2024/01/03 18:04:55;;;;;;;4.80;4.70;;;;;;;;;;6159499;28;20489;-92
2024/01/03 18:08:00;;;;;;;5.82;5.63;;;;;;;;;;6160576;28;20069;-91
2024/01/03 18:11:02;;;;;;;7.20;5.15;;;;;;;;;;6155281;28;20042;-92
2024/01/03 18:14:04;;;;;;;5.43;5.13;;;;;;;;;;6152047;28;20529;-91
2024/01/03 18:17:07;;;;;;;5.60;5.40;;;;;;;;;;6165907;28;20050;-89
2024/01/03 18:20:09;;;;;;;4.57;4.47;;;;;;;;;;6154327;28;20054;-92
2024/01/03 18:23:14;;;;;;;5.10;4.90;;;;;;;;;;6155080;28;20045;-91
2024/01/03 18:26:16;;;;;;;5.45;5.25;;;;;;;;;;6155911;28;20047;-91
2024/01/03 18:29:24;;;;;;;5.50;5.30;;;;;;;;;;6148574;28;20045;-88
2024/01/03 18:32:26;;;;;;;4.75;4.65;;;;;;;;;;6173281;28;20189;-87
2024/01/03 18:35:28;;;;;;;6.15;5.95;;;;;;;;;;6164686;28;20050;-87
2024/01/03 18:38:31;;;;;;;6.68;5.90;;;;;;;;;;6158708;28;20042;-87
2024/01/03 18:41:34;;;;;;;5.40;5.20;;;;;;;;;;6155676;28;20050;-87
2024/01/03 18:44:36;;;;;;;5.68;5.38;;;;;;;;;;6159050;28;20559;-87
2024/01/03 18:47:37;;;;;;;5.68;5.47;;;;;;;;;;6149858;28;20039;-86
2024/01/03 18:50:39;;;;;;;5.45;5.25;;;;;;;;;;6146002;28;20532;-87
2024/01/03 18:53:41;;;;;;;7.40;5.75;;;;;;;;;;6149452;28;20038;-87
2024/01/03 18:56:44;;;;;;;5.57;5.38;;;;;;;;;;6155908;28;20533;-87
2024/01/03 18:59:46;;;;;;;5.00;4.90;;;;;;;;;;6151105;28;20046;-87
2024/01/03 19:02:48;;;;;;;6.47;5.97;;;;;;;;;;6158398;28;20054;-87
2024/01/03 19:05:50;;;;;;;5.68;5.47;;;;;;;;;;6155259;28;20481;-88
2024/01/03 19:08:52;;;;;;;5.85;5.65;;;;;;;;;;6148949;28;20089;-88
2024/01/03 19:11:56;;;;;;;5.32;5.13;;;;;;;;;;6156553;28;20404;-87
2024/01/03 19:14:58;;;;;;;5.45;5.25;;;;;;;;;;6152759;28;20031;-87
2024/01/03 19:18:00;;;;;;;5.68;5.47;;;;;;;;;;6163522;28;20129;-88
2024/01/03 19:21:03;;;;;;;5.15;4.97;;;;;;;;;;6158317;28;20074;-88